sensor_id;sensor_type;location;lat;lon;timestamp;temperature;humidity
43541;DHT22;29549;40.386;-3.710;2023-08-07T00:04:08;26.50;29.30
43541;DHT22;29549;40.386;-3.710;2023-08-07T00:14:08;26.30;29.70
43541;DHT22;29549;40.386;-3.710;2023-08-07T00:24:09;26.10;30.20
43541;DHT22;29549;40.386;-3.710;2023-08-07T00:34:10;25.90;30.50
43541;DHT22;29549;40.386;-3.710;2023-08-07T00:44:11;25.70;30.90
43541;DHT22;29549;40.386;-3.710;2023-08-07T00:54:15;25.60;31.20
43541;DHT22;29549;40.386;-3.710;2023-08-07T01:04:16;25.60;31.30
43541;DHT22;29549;40.386;-3.710;2023-08-07T01:24:33;25.20;31.90
43541;DHT22;29549;40.386;-3.710;2023-08-07T01:34:34;25.10;32.10
43541;DHT22;29549;40.386;-3.710;2023-08-07T01:44:36;25.00;32.30
43541;DHT22;29549;40.386;-3.710;2023-08-07T01:54:37;24.80;32.60
43541;DHT22;29549;40.386;-3.710;2023-08-07T02:04:38;24.60;32.90
43541;DHT22;29549;40.386;-3.710;2023-08-07T02:14:39;24.30;33.40
43541;DHT22;29549;40.386;-3.710;2023-08-07T02:24:40;24.20;33.50
43541;DHT22;29549;40.386;-3.710;2023-08-07T02:34:40;24.00;33.80
43541;DHT22;29549;40.386;-3.710;2023-08-07T02:44:41;23.90;34.00
43541;DHT22;29549;40.386;-3.710;2023-08-07T02:54:42;24.00;33.90
43541;DHT22;29549;40.386;-3.710;2023-08-07T03:04:42;23.70;34.20
43541;DHT22;29549;40.386;-3.710;2023-08-07T03:14:43;23.60;34.40
43541;DHT22;29549;40.386;-3.710;2023-08-07T03:24:47;23.60;34.40
43541;DHT22;29549;40.386;-3.710;2023-08-07T03:34:48;23.60;34.30
43541;DHT22;29549;40.386;-3.710;2023-08-07T03:44:49;23.40;34.70
43541;DHT22;29549;40.386;-3.710;2023-08-07T03:54:50;23.30;34.70
43541;DHT22;29549;40.386;-3.710;2023-08-07T04:04:50;23.20;34.80
43541;DHT22;29549;40.386;-3.710;2023-08-07T04:14:51;23.10;34.10
43541;DHT22;29549;40.386;-3.710;2023-08-07T04:24:52;22.90;33.30
43541;DHT22;29549;40.386;-3.710;2023-08-07T04:34:53;22.80;33.00
43541;DHT22;29549;40.386;-3.710;2023-08-07T04:44:53;23.10;31.60
43541;DHT22;29549;40.386;-3.710;2023-08-07T04:54:54;22.80;31.40
43541;DHT22;29549;40.386;-3.710;2023-08-07T05:04:55;22.80;30.40
43541;DHT22;29549;40.386;-3.710;2023-08-07T05:14:56;22.70;29.70
43541;DHT22;29549;40.386;-3.710;2023-08-07T05:24:56;22.60;29.20
43541;DHT22;29549;40.386;-3.710;2023-08-07T05:34:57;22.60;28.30
43541;DHT22;29549;40.386;-3.710;2023-08-07T05:44:58;22.50;28.20
43541;DHT22;29549;40.386;-3.710;2023-08-07T05:54:59;22.40;27.80
43541;DHT22;29549;40.386;-3.710;2023-08-07T06:05:00;22.40;27.60
43541;DHT22;29549;40.386;-3.710;2023-08-07T06:15:01;22.60;27.00
43541;DHT22;29549;40.386;-3.710;2023-08-07T06:25:01;22.40;27.10
43541;DHT22;29549;40.386;-3.710;2023-08-07T06:35:03;22.50;27.00
43541;DHT22;29549;40.386;-3.710;2023-08-07T06:45:05;22.70;27.00
43541;DHT22;29549;40.386;-3.710;2023-08-07T06:55:07;23.20;26.30
43541;DHT22;29549;40.386;-3.710;2023-08-07T07:05:07;23.80;25.30
43541;DHT22;29549;40.386;-3.710;2023-08-07T07:15:09;24.20;24.80
43541;DHT22;29549;40.386;-3.710;2023-08-07T07:25:10;24.50;24.20
43541;DHT22;29549;40.386;-3.710;2023-08-07T07:35:10;24.70;24.00
43541;DHT22;29549;40.386;-3.710;2023-08-07T07:45:11;25.20;24.00
43541;DHT22;29549;40.386;-3.710;2023-08-07T07:55:12;25.60;23.30
43541;DHT22;29549;40.386;-3.710;2023-08-07T08:05:14;25.90;23.30
43541;DHT22;29549;40.386;-3.710;2023-08-07T08:15:16;26.10;23.70
43541;DHT22;29549;40.386;-3.710;2023-08-07T08:25:17;26.30;23.70
43541;DHT22;29549;40.386;-3.710;2023-08-07T08:35:20;26.60;23.80
43541;DHT22;29549;40.386;-3.710;2023-08-07T08:45:21;27.10;24.20
43541;DHT22;29549;40.386;-3.710;2023-08-07T08:55:23;27.10;25.50
43541;DHT22;29549;40.386;-3.710;2023-08-07T09:05:24;27.30;25.50
43541;DHT22;29549;40.386;-3.710;2023-08-07T09:15:25;27.50;27.00
43541;DHT22;29549;40.386;-3.710;2023-08-07T09:25:28;27.60;27.60
43541;DHT22;29549;40.386;-3.710;2023-08-07T09:35:30;27.90;30.10
43541;DHT22;29549;40.386;-3.710;2023-08-07T09:45:34;28.10;30.40
43541;DHT22;29549;40.386;-3.710;2023-08-07T09:55:37;28.20;30.20
43541;DHT22;29549;40.386;-3.710;2023-08-07T10:05:37;28.40;29.90
43541;DHT22;29549;40.386;-3.710;2023-08-07T10:15:39;28.30;30.30
43541;DHT22;29549;40.386;-3.710;2023-08-07T10:25:43;28.70;30.80
43541;DHT22;29549;40.386;-3.710;2023-08-07T10:35:47;28.60;31.00
43541;DHT22;29549;40.386;-3.710;2023-08-07T10:45:50;28.80;32.00
43541;DHT22;29549;40.386;-3.710;2023-08-07T10:55:50;29.10;31.30
43541;DHT22;29549;40.386;-3.710;2023-08-07T11:05:51;29.10;32.90
43541;DHT22;29549;40.386;-3.710;2023-08-07T11:15:52;29.20;32.50
43541;DHT22;29549;40.386;-3.710;2023-08-07T11:25:53;29.10;32.50
43541;DHT22;29549;40.386;-3.710;2023-08-07T11:35:55;29.30;32.70
43541;DHT22;29549;40.386;-3.710;2023-08-07T11:45:57;29.60;33.00
43541;DHT22;29549;40.386;-3.710;2023-08-07T11:56:00;29.80;32.40
43541;DHT22;29549;40.386;-3.710;2023-08-07T12:06:03;30.00;32.10
43541;DHT22;29549;40.386;-3.710;2023-08-07T12:16:04;30.30;31.50
43541;DHT22;29549;40.386;-3.710;2023-08-07T12:26:06;30.50;31.20
43541;DHT22;29549;40.386;-3.710;2023-08-07T12:36:07;30.50;30.90
43541;DHT22;29549;40.386;-3.710;2023-08-07T12:46:08;30.80;30.60
43541;DHT22;29549;40.386;-3.710;2023-08-07T12:56:09;30.80;30.40
43541;DHT22;29549;40.386;-3.710;2023-08-07T13:06:10;31.10;29.10
43541;DHT22;29549;40.386;-3.710;2023-08-07T13:16:12;31.60;27.10
43541;DHT22;29549;40.386;-3.710;2023-08-07T13:26:13;31.80;26.20
43541;DHT22;29549;40.386;-3.710;2023-08-07T13:36:13;32.10;26.70
43541;DHT22;29549;40.386;-3.710;2023-08-07T13:46:14;32.30;26.10
43541;DHT22;29549;40.386;-3.710;2023-08-07T13:56:15;32.90;25.30
43541;DHT22;29549;40.386;-3.710;2023-08-07T14:06:16;32.90;25.30
43541;DHT22;29549;40.386;-3.710;2023-08-07T14:16:16;33.00;25.60
43541;DHT22;29549;40.386;-3.710;2023-08-07T14:26:17;33.40;24.70
43541;DHT22;29549;40.386;-3.710;2023-08-07T14:36:19;33.30;24.90
43541;DHT22;29549;40.386;-3.710;2023-08-07T14:46:20;33.50;24.30
43541;DHT22;29549;40.386;-3.710;2023-08-07T14:56:21;33.80;23.80
43541;DHT22;29549;40.386;-3.710;2023-08-07T15:06:22;34.00;23.50
43541;DHT22;29549;40.386;-3.710;2023-08-07T15:16:23;34.10;22.30
43541;DHT22;29549;40.386;-3.710;2023-08-07T15:26:23;34.10;23.50
43541;DHT22;29549;40.386;-3.710;2023-08-07T15:36:24;34.20;22.60
43541;DHT22;29549;40.386;-3.710;2023-08-07T15:46:25;34.50;22.10
43541;DHT22;29549;40.386;-3.710;2023-08-07T15:56:26;34.50;22.10
43541;DHT22;29549;40.386;-3.710;2023-08-07T16:06:26;34.40;22.60
43541;DHT22;29549;40.386;-3.710;2023-08-07T16:16:27;34.60;22.60
43541;DHT22;29549;40.386;-3.710;2023-08-07T16:26:28;34.60;22.30
43541;DHT22;29549;40.386;-3.710;2023-08-07T16:36:29;34.60;21.90
43541;DHT22;29549;40.386;-3.710;2023-08-07T16:46:30;34.60;21.90
43541;DHT22;29549;40.386;-3.710;2023-08-07T16:56:31;34.80;21.40
43541;DHT22;29549;40.386;-3.710;2023-08-07T17:06:31;34.80;21.40
43541;DHT22;29549;40.386;-3.710;2023-08-07T17:16:32;34.80;21.60
43541;DHT22;29549;40.386;-3.710;2023-08-07T17:26:33;34.70;21.30
43541;DHT22;29549;40.386;-3.710;2023-08-07T17:36:34;34.60;21.50
43541;DHT22;29549;40.386;-3.710;2023-08-07T17:46:35;34.50;21.90
43541;DHT22;29549;40.386;-3.710;2023-08-07T17:56:35;34.60;21.90
43541;DHT22;29549;40.386;-3.710;2023-08-07T18:06:36;34.40;21.60
43541;DHT22;29549;40.386;-3.710;2023-08-07T18:16:37;34.40;21.70
43541;DHT22;29549;40.386;-3.710;2023-08-07T18:26:38;34.20;21.90
43541;DHT22;29549;40.386;-3.710;2023-08-07T18:36:40;34.10;21.70
43541;DHT22;29549;40.386;-3.710;2023-08-07T18:46:41;33.90;22.10
43541;DHT22;29549;40.386;-3.710;2023-08-07T18:56:42;33.70;22.70
43541;DHT22;29549;40.386;-3.710;2023-08-07T19:06:43;33.60;23.00
43541;DHT22;29549;40.386;-3.710;2023-08-07T19:16:44;33.40;23.80
43541;DHT22;29549;40.386;-3.710;2023-08-07T19:26:46;33.10;24.00
43541;DHT22;29549;40.386;-3.710;2023-08-07T19:36:47;32.90;24.70
43541;DHT22;29549;40.386;-3.710;2023-08-07T19:46:50;32.70;25.00
43541;DHT22;29549;40.386;-3.710;2023-08-07T19:56:52;32.60;25.60
43541;DHT22;29549;40.386;-3.710;2023-08-07T20:06:53;32.30;26.10
43541;DHT22;29549;40.386;-3.710;2023-08-07T20:16:53;32.20;26.30
43541;DHT22;29549;40.386;-3.710;2023-08-07T20:26:55;32.00;26.60
43541;DHT22;29549;40.386;-3.710;2023-08-07T20:36:56;31.70;26.60
43541;DHT22;29549;40.386;-3.710;2023-08-07T20:46:57;31.60;26.50
43541;DHT22;29549;40.386;-3.710;2023-08-07T20:56:57;31.30;27.00
43541;DHT22;29549;40.386;-3.710;2023-08-07T21:06:58;31.20;27.80
43541;DHT22;29549;40.386;-3.710;2023-08-07T21:16:59;31.10;28.00
43541;DHT22;29549;40.386;-3.710;2023-08-07T21:27:00;30.70;29.40
43541;DHT22;29549;40.386;-3.710;2023-08-07T21:37:00;30.60;29.80
43541;DHT22;29549;40.386;-3.710;2023-08-07T21:47:01;30.30;29.80
43541;DHT22;29549;40.386;-3.710;2023-08-07T21:57:02;30.00;29.70
43541;DHT22;29549;40.386;-3.710;2023-08-07T22:07:03;29.80;29.60
43541;DHT22;29549;40.386;-3.710;2023-08-07T22:17:04;29.80;29.60
43541;DHT22;29549;40.386;-3.710;2023-08-07T22:27:05;29.50;29.90
43541;DHT22;29549;40.386;-3.710;2023-08-07T22:37:06;29.20;30.30
43541;DHT22;29549;40.386;-3.710;2023-08-07T22:47:07;29.00;30.20
43541;DHT22;29549;40.386;-3.710;2023-08-07T22:57:07;28.90;30.20
43541;DHT22;29549;40.386;-3.710;2023-08-07T23:07:08;28.80;30.50
43541;DHT22;29549;40.386;-3.710;2023-08-07T23:17:09;28.70;30.80
43541;DHT22;29549;40.386;-3.710;2023-08-07T23:27:10;28.60;30.90
43541;DHT22;29549;40.386;-3.710;2023-08-07T23:37:11;28.40;30.90
43541;DHT22;29549;40.386;-3.710;2023-08-07T23:47:12;28.30;31.30
43541;DHT22;29549;40.386;-3.710;2023-08-07T23:57:12;28.20;31.30
